Terminal Aerodrome Forecast
Issued by NWS Wilmington, OH

Home | Current Version | Previous Version | Text Only | Print | Product List | Glossary On
Versions: 1 2 3 4 5 6 7 8 9 10 11 12 13 14 15 16
913
FTUS41 KILN 172345
TAFCMH
TAF
KCMH 172345Z 1800/1824 17004KT P6SM OVC045
     FM180900 20004KT P6SM OVC015
     FM181300 20005KT P6SM -DZ OVC008
     FM182100 23008KT P6SM OVC012=

USA.gov is the U.S. government's official web portal to all federal, state and local government web resources and services.